sensor_id;sensor_type;location;lat;lon;timestamp;P1;durP1;ratioP1;P2;durP2;ratioP2
83715;SDS011;73698;51.138;6.950;2024-03-22T00:01:47;33.00;;;14.20;;
83715;SDS011;73698;51.138;6.950;2024-03-22T00:04:12;34.50;;;13.35;;
83715;SDS011;73698;51.138;6.950;2024-03-22T00:06:39;37.20;;;14.27;;
83715;SDS011;73698;51.138;6.950;2024-03-22T00:09:06;35.67;;;13.70;;
83715;SDS011;73698;51.138;6.950;2024-03-22T00:11:31;32.70;;;13.55;;
83715;SDS011;73698;51.138;6.950;2024-03-22T00:13:57;35.20;;;12.88;;
83715;SDS011;73698;51.138;6.950;2024-03-22T00:16:22;30.35;;;13.02;;
83715;SDS011;73698;51.138;6.950;2024-03-22T00:18:48;34.13;;;13.70;;
83715;SDS011;73698;51.138;6.950;2024-03-22T00:21:13;32.85;;;13.70;;
83715;SDS011;73698;51.138;6.950;2024-03-22T00:23:39;33.83;;;13.52;;
83715;SDS011;73698;51.138;6.950;2024-03-22T00:26:04;35.47;;;13.38;;
83715;SDS011;73698;51.138;6.950;2024-03-22T00:28:29;34.53;;;14.45;;
83715;SDS011;73698;51.138;6.950;2024-03-22T00:30:55;33.25;;;13.57;;
83715;SDS011;73698;51.138;6.950;2024-03-22T00:33:20;34.65;;;14.90;;
83715;SDS011;73698;51.138;6.950;2024-03-22T00:35:46;30.48;;;13.00;;
83715;SDS011;73698;51.138;6.950;2024-03-22T00:38:11;30.00;;;13.25;;
83715;SDS011;73698;51.138;6.950;2024-03-22T00:40:36;34.55;;;14.23;;
83715;SDS011;73698;51.138;6.950;2024-03-22T00:43:02;29.05;;;11.90;;
83715;SDS011;73698;51.138;6.950;2024-03-22T00:45:27;34.67;;;15.40;;
83715;SDS011;73698;51.138;6.950;2024-03-22T00:47:53;30.05;;;14.18;;
83715;SDS011;73698;51.138;6.950;2024-03-22T00:50:18;33.95;;;14.02;;
83715;SDS011;73698;51.138;6.950;2024-03-22T00:52:43;31.38;;;13.77;;
83715;SDS011;73698;51.138;6.950;2024-03-22T00:55:09;31.25;;;12.60;;
83715;SDS011;73698;51.138;6.950;2024-03-22T00:57:34;34.13;;;14.32;;
83715;SDS011;73698;51.138;6.950;2024-03-22T01:00:00;31.13;;;12.70;;
83715;SDS011;73698;51.138;6.950;2024-03-22T01:02:25;33.38;;;13.60;;
83715;SDS011;73698;51.138;6.950;2024-03-22T01:04:50;36.35;;;14.80;;
83715;SDS011;73698;51.138;6.950;2024-03-22T01:07:16;29.33;;;13.63;;
83715;SDS011;73698;51.138;6.950;2024-03-22T01:09:41;39.70;;;13.05;;
83715;SDS011;73698;51.138;6.950;2024-03-22T01:12:09;31.45;;;13.48;;
83715;SDS011;73698;51.138;6.950;2024-03-22T01:14:35;29.35;;;12.98;;
83715;SDS011;73698;51.138;6.950;2024-03-22T01:17:00;33.88;;;14.20;;
83715;SDS011;73698;51.138;6.950;2024-03-22T01:19:26;28.73;;;12.50;;
83715;SDS011;73698;51.138;6.950;2024-03-22T01:21:51;28.13;;;12.43;;
83715;SDS011;73698;51.138;6.950;2024-03-22T01:24:17;33.40;;;14.18;;
83715;SDS011;73698;51.138;6.950;2024-03-22T01:26:42;30.27;;;12.32;;
83715;SDS011;73698;51.138;6.950;2024-03-22T01:29:07;31.85;;;13.45;;
83715;SDS011;73698;51.138;6.950;2024-03-22T01:31:33;30.13;;;13.13;;
83715;SDS011;73698;51.138;6.950;2024-03-22T01:33:58;31.40;;;13.55;;
83715;SDS011;73698;51.138;6.950;2024-03-22T01:36:23;33.30;;;14.32;;
83715;SDS011;73698;51.138;6.950;2024-03-22T01:38:49;26.50;;;11.18;;
83715;SDS011;73698;51.138;6.950;2024-03-22T01:41:14;29.20;;;12.10;;
83715;SDS011;73698;51.138;6.950;2024-03-22T01:43:40;32.38;;;14.85;;
83715;SDS011;73698;51.138;6.950;2024-03-22T01:46:05;32.83;;;12.32;;
83715;SDS011;73698;51.138;6.950;2024-03-22T01:48:33;29.85;;;12.10;;
83715;SDS011;73698;51.138;6.950;2024-03-22T01:50:59;23.98;;;11.93;;
83715;SDS011;73698;51.138;6.950;2024-03-22T01:53:24;27.40;;;11.65;;
83715;SDS011;73698;51.138;6.950;2024-03-22T01:55:50;27.25;;;11.70;;
83715;SDS011;73698;51.138;6.950;2024-03-22T01:58:16;30.55;;;12.52;;
83715;SDS011;73698;51.138;6.950;2024-03-22T02:00:41;28.30;;;13.73;;
83715;SDS011;73698;51.138;6.950;2024-03-22T02:03:07;27.42;;;12.40;;
83715;SDS011;73698;51.138;6.950;2024-03-22T02:05:33;25.40;;;12.13;;
83715;SDS011;73698;51.138;6.950;2024-03-22T02:07:58;28.30;;;12.07;;
83715;SDS011;73698;51.138;6.950;2024-03-22T02:10:24;30.98;;;11.82;;
83715;SDS011;73698;51.138;6.950;2024-03-22T02:12:49;21.83;;;11.75;;
83715;SDS011;73698;51.138;6.950;2024-03-22T02:15:14;27.73;;;12.57;;
83715;SDS011;73698;51.138;6.950;2024-03-22T02:17:40;28.98;;;12.23;;
83715;SDS011;73698;51.138;6.950;2024-03-22T02:20:05;26.20;;;12.05;;
83715;SDS011;73698;51.138;6.950;2024-03-22T02:22:32;27.27;;;11.55;;
83715;SDS011;73698;51.138;6.950;2024-03-22T02:24:57;28.58;;;11.57;;
83715;SDS011;73698;51.138;6.950;2024-03-22T02:27:22;23.42;;;12.35;;
83715;SDS011;73698;51.138;6.950;2024-03-22T02:29:50;24.33;;;11.65;;
83715;SDS011;73698;51.138;6.950;2024-03-22T02:32:15;28.73;;;11.80;;
83715;SDS011;73698;51.138;6.950;2024-03-22T02:34:40;23.85;;;10.43;;
83715;SDS011;73698;51.138;6.950;2024-03-22T02:37:06;27.02;;;11.02;;
83715;SDS011;73698;51.138;6.950;2024-03-22T02:39:31;25.10;;;10.52;;
83715;SDS011;73698;51.138;6.950;2024-03-22T02:41:56;24.85;;;10.88;;
83715;SDS011;73698;51.138;6.950;2024-03-22T02:44:22;29.45;;;12.55;;
83715;SDS011;73698;51.138;6.950;2024-03-22T02:46:47;24.00;;;11.30;;
83715;SDS011;73698;51.138;6.950;2024-03-22T02:49:13;22.92;;;9.95;;
83715;SDS011;73698;51.138;6.950;2024-03-22T02:51:38;21.55;;;10.85;;
83715;SDS011;73698;51.138;6.950;2024-03-22T02:54:04;24.48;;;10.98;;
83715;SDS011;73698;51.138;6.950;2024-03-22T02:56:30;24.95;;;11.35;;
83715;SDS011;73698;51.138;6.950;2024-03-22T02:58:55;24.08;;;10.30;;
83715;SDS011;73698;51.138;6.950;2024-03-22T03:01:20;20.80;;;9.45;;
83715;SDS011;73698;51.138;6.950;2024-03-22T03:03:46;27.48;;;10.32;;
83715;SDS011;73698;51.138;6.950;2024-03-22T03:06:11;23.92;;;10.50;;
83715;SDS011;73698;51.138;6.950;2024-03-22T03:08:38;19.27;;;10.23;;
83715;SDS011;73698;51.138;6.950;2024-03-22T03:11:04;24.20;;;10.50;;
83715;SDS011;73698;51.138;6.950;2024-03-22T03:13:29;20.48;;;9.93;;
83715;SDS011;73698;51.138;6.950;2024-03-22T03:15:54;26.70;;;9.60;;
83715;SDS011;73698;51.138;6.950;2024-03-22T03:18:20;24.42;;;11.32;;
83715;SDS011;73698;51.138;6.950;2024-03-22T03:20:45;25.95;;;10.70;;
83715;SDS011;73698;51.138;6.950;2024-03-22T03:23:11;27.25;;;10.82;;
83715;SDS011;73698;51.138;6.950;2024-03-22T03:25:36;22.75;;;10.60;;
83715;SDS011;73698;51.138;6.950;2024-03-22T03:28:01;21.70;;;9.77;;
83715;SDS011;73698;51.138;6.950;2024-03-22T03:30:27;23.95;;;10.48;;
83715;SDS011;73698;51.138;6.950;2024-03-22T03:32:52;21.50;;;8.93;;
83715;SDS011;73698;51.138;6.950;2024-03-22T03:35:18;20.98;;;9.48;;
83715;SDS011;73698;51.138;6.950;2024-03-22T03:37:43;22.17;;;10.25;;
83715;SDS011;73698;51.138;6.950;2024-03-22T03:40:08;24.98;;;10.55;;
83715;SDS011;73698;51.138;6.950;2024-03-22T03:42:34;25.77;;;10.63;;
83715;SDS011;73698;51.138;6.950;2024-03-22T03:44:59;21.90;;;10.73;;
83715;SDS011;73698;51.138;6.950;2024-03-22T03:47:25;22.60;;;10.05;;
83715;SDS011;73698;51.138;6.950;2024-03-22T03:49:50;27.98;;;10.65;;
83715;SDS011;73698;51.138;6.950;2024-03-22T03:52:17;23.70;;;10.38;;
83715;SDS011;73698;51.138;6.950;2024-03-22T03:54:42;22.73;;;10.63;;
83715;SDS011;73698;51.138;6.950;2024-03-22T03:57:08;22.75;;;9.98;;
83715;SDS011;73698;51.138;6.950;2024-03-22T03:59:33;22.23;;;9.65;;
83715;SDS011;73698;51.138;6.950;2024-03-22T04:01:58;24.52;;;10.68;;
83715;SDS011;73698;51.138;6.950;2024-03-22T04:04:24;20.48;;;9.68;;
83715;SDS011;73698;51.138;6.950;2024-03-22T04:06:49;24.90;;;10.30;;
83715;SDS011;73698;51.138;6.950;2024-03-22T04:09:15;23.92;;;11.20;;
83715;SDS011;73698;51.138;6.950;2024-03-22T04:11:40;23.30;;;10.00;;
83715;SDS011;73698;51.138;6.950;2024-03-22T04:14:05;21.55;;;9.02;;
83715;SDS011;73698;51.138;6.950;2024-03-22T04:16:31;24.60;;;10.98;;
83715;SDS011;73698;51.138;6.950;2024-03-22T04:18:57;19.23;;;9.45;;
83715;SDS011;73698;51.138;6.950;2024-03-22T04:21:22;20.80;;;9.27;;
83715;SDS011;73698;51.138;6.950;2024-03-22T04:23:48;24.35;;;9.48;;
83715;SDS011;73698;51.138;6.950;2024-03-22T04:26:13;25.45;;;10.63;;
83715;SDS011;73698;51.138;6.950;2024-03-22T04:28:40;24.08;;;9.77;;
83715;SDS011;73698;51.138;6.950;2024-03-22T04:31:06;22.63;;;10.23;;
83715;SDS011;73698;51.138;6.950;2024-03-22T04:33:33;22.88;;;9.90;;
83715;SDS011;73698;51.138;6.950;2024-03-22T04:35:59;26.23;;;11.27;;
83715;SDS011;73698;51.138;6.950;2024-03-22T04:38:28;23.08;;;10.70;;
83715;SDS011;73698;51.138;6.950;2024-03-22T04:40:54;22.52;;;9.63;;
83715;SDS011;73698;51.138;6.950;2024-03-22T04:43:21;25.20;;;9.70;;
83715;SDS011;73698;51.138;6.950;2024-03-22T04:45:47;22.30;;;10.82;;
83715;SDS011;73698;51.138;6.950;2024-03-22T04:48:20;26.83;;;9.90;;
83715;SDS011;73698;51.138;6.950;2024-03-22T04:50:47;21.23;;;9.10;;
83715;SDS011;73698;51.138;6.950;2024-03-22T04:53:15;26.05;;;10.40;;
83715;SDS011;73698;51.138;6.950;2024-03-22T04:55:42;17.40;;;8.13;;
83715;SDS011;73698;51.138;6.950;2024-03-22T04:58:11;23.77;;;9.40;;
83715;SDS011;73698;51.138;6.950;2024-03-22T05:00:41;20.00;;;10.13;;
83715;SDS011;73698;51.138;6.950;2024-03-22T05:03:07;18.98;;;8.52;;
83715;SDS011;73698;51.138;6.950;2024-03-22T05:05:33;21.30;;;9.45;;
83715;SDS011;73698;51.138;6.950;2024-03-22T05:07:59;24.05;;;10.57;;
83715;SDS011;73698;51.138;6.950;2024-03-22T05:10:24;19.55;;;9.18;;
83715;SDS011;73698;51.138;6.950;2024-03-22T05:12:49;26.10;;;10.48;;
83715;SDS011;73698;51.138;6.950;2024-03-22T05:15:15;25.35;;;11.25;;
83715;SDS011;73698;51.138;6.950;2024-03-22T05:17:40;22.63;;;11.13;;
83715;SDS011;73698;51.138;6.950;2024-03-22T05:20:06;19.17;;;8.77;;
83715;SDS011;73698;51.138;6.950;2024-03-22T05:22:36;22.02;;;9.13;;
83715;SDS011;73698;51.138;6.950;2024-03-22T05:25:04;17.88;;;8.82;;
83715;SDS011;73698;51.138;6.950;2024-03-22T05:27:33;19.73;;;10.52;;
83715;SDS011;73698;51.138;6.950;2024-03-22T05:29:58;18.95;;;8.80;;
83715;SDS011;73698;51.138;6.950;2024-03-22T05:32:24;19.95;;;9.48;;
83715;SDS011;73698;51.138;6.950;2024-03-22T05:34:50;22.23;;;10.55;;
83715;SDS011;73698;51.138;6.950;2024-03-22T05:37:16;18.05;;;9.55;;
83715;SDS011;73698;51.138;6.950;2024-03-22T05:39:41;21.60;;;9.82;;
83715;SDS011;73698;51.138;6.950;2024-03-22T05:42:07;21.33;;;9.32;;
83715;SDS011;73698;51.138;6.950;2024-03-22T05:44:33;17.50;;;9.07;;
83715;SDS011;73698;51.138;6.950;2024-03-22T05:46:58;18.88;;;10.07;;
83715;SDS011;73698;51.138;6.950;2024-03-22T05:49:23;20.80;;;10.80;;
83715;SDS011;73698;51.138;6.950;2024-03-22T05:51:49;21.48;;;9.40;;
83715;SDS011;73698;51.138;6.950;2024-03-22T05:54:14;20.35;;;8.95;;
83715;SDS011;73698;51.138;6.950;2024-03-22T05:56:40;17.92;;;9.15;;
83715;SDS011;73698;51.138;6.950;2024-03-22T05:59:05;18.90;;;9.63;;
83715;SDS011;73698;51.138;6.950;2024-03-22T06:01:31;21.35;;;10.15;;
83715;SDS011;73698;51.138;6.950;2024-03-22T06:03:57;18.15;;;9.57;;
83715;SDS011;73698;51.138;6.950;2024-03-22T06:06:23;19.52;;;9.48;;
83715;SDS011;73698;51.138;6.950;2024-03-22T06:08:51;22.60;;;9.95;;
83715;SDS011;73698;51.138;6.950;2024-03-22T06:11:20;21.05;;;10.18;;
83715;SDS011;73698;51.138;6.950;2024-03-22T06:13:46;24.63;;;11.27;;
83715;SDS011;73698;51.138;6.950;2024-03-22T06:16:12;24.70;;;11.52;;
83715;SDS011;73698;51.138;6.950;2024-03-22T06:18:38;21.38;;;10.68;;
83715;SDS011;73698;51.138;6.950;2024-03-22T06:21:04;21.50;;;11.38;;
83715;SDS011;73698;51.138;6.950;2024-03-22T06:23:30;20.63;;;10.63;;
83715;SDS011;73698;51.138;6.950;2024-03-22T06:25:55;20.08;;;10.07;;
83715;SDS011;73698;51.138;6.950;2024-03-22T06:28:21;20.00;;;9.80;;
83715;SDS011;73698;51.138;6.950;2024-03-22T06:30:48;21.60;;;10.63;;
83715;SDS011;73698;51.138;6.950;2024-03-22T06:33:13;23.48;;;10.68;;
83715;SDS011;73698;51.138;6.950;2024-03-22T06:35:39;21.23;;;10.32;;
83715;SDS011;73698;51.138;6.950;2024-03-22T06:38:06;25.17;;;10.35;;
83715;SDS011;73698;51.138;6.950;2024-03-22T06:40:31;23.35;;;11.02;;
83715;SDS011;73698;51.138;6.950;2024-03-22T06:42:57;21.33;;;11.15;;
83715;SDS011;73698;51.138;6.950;2024-03-22T06:45:23;21.40;;;10.68;;
83715;SDS011;73698;51.138;6.950;2024-03-22T06:47:49;22.70;;;11.50;;
83715;SDS011;73698;51.138;6.950;2024-03-22T06:50:14;24.92;;;12.48;;
83715;SDS011;73698;51.138;6.950;2024-03-22T06:52:40;22.05;;;11.20;;
83715;SDS011;73698;51.138;6.950;2024-03-22T06:55:05;24.60;;;12.05;;
83715;SDS011;73698;51.138;6.950;2024-03-22T06:57:31;26.17;;;12.07;;
83715;SDS011;73698;51.138;6.950;2024-03-22T06:59:58;22.90;;;11.70;;
83715;SDS011;73698;51.138;6.950;2024-03-22T07:02:24;25.27;;;11.63;;
83715;SDS011;73698;51.138;6.950;2024-03-22T07:04:49;23.80;;;12.82;;
83715;SDS011;73698;51.138;6.950;2024-03-22T07:07:15;27.88;;;11.50;;
83715;SDS011;73698;51.138;6.950;2024-03-22T07:09:40;24.05;;;12.45;;
83715;SDS011;73698;51.138;6.950;2024-03-22T07:12:05;27.17;;;12.77;;
83715;SDS011;73698;51.138;6.950;2024-03-22T07:14:31;24.30;;;12.23;;
83715;SDS011;73698;51.138;6.950;2024-03-22T07:16:56;23.42;;;13.00;;
83715;SDS011;73698;51.138;6.950;2024-03-22T07:19:22;22.25;;;11.32;;
83715;SDS011;73698;51.138;6.950;2024-03-22T07:21:47;25.80;;;12.23;;
83715;SDS011;73698;51.138;6.950;2024-03-22T07:24:13;26.55;;;12.65;;
83715;SDS011;73698;51.138;6.950;2024-03-22T07:26:38;28.38;;;12.43;;
83715;SDS011;73698;51.138;6.950;2024-03-22T07:29:04;23.02;;;11.75;;
83715;SDS011;73698;51.138;6.950;2024-03-22T07:31:30;26.42;;;12.73;;
83715;SDS011;73698;51.138;6.950;2024-03-22T07:33:55;32.10;;;13.00;;
83715;SDS011;73698;51.138;6.950;2024-03-22T07:36:21;25.60;;;13.00;;
83715;SDS011;73698;51.138;6.950;2024-03-22T07:38:46;26.10;;;14.60;;
83715;SDS011;73698;51.138;6.950;2024-03-22T07:41:11;25.02;;;12.98;;
83715;SDS011;73698;51.138;6.950;2024-03-22T07:43:37;29.60;;;13.20;;
83715;SDS011;73698;51.138;6.950;2024-03-22T07:46:02;28.58;;;13.13;;
83715;SDS011;73698;51.138;6.950;2024-03-22T07:48:28;27.58;;;13.00;;
83715;SDS011;73698;51.138;6.950;2024-03-22T07:51:00;24.85;;;12.52;;
83715;SDS011;73698;51.138;6.950;2024-03-22T07:53:26;25.63;;;13.70;;
83715;SDS011;73698;51.138;6.950;2024-03-22T07:55:51;27.52;;;13.98;;
83715;SDS011;73698;51.138;6.950;2024-03-22T07:58:16;26.60;;;12.05;;
83715;SDS011;73698;51.138;6.950;2024-03-22T08:00:42;27.90;;;13.23;;
83715;SDS011;73698;51.138;6.950;2024-03-22T08:03:07;25.08;;;13.60;;
83715;SDS011;73698;51.138;6.950;2024-03-22T08:08:04;25.33;;;12.02;;
83715;SDS011;73698;51.138;6.950;2024-03-22T08:10:29;24.42;;;12.60;;
83715;SDS011;73698;51.138;6.950;2024-03-22T08:12:55;27.80;;;13.32;;
83715;SDS011;73698;51.138;6.950;2024-03-22T08:15:20;22.10;;;12.07;;
83715;SDS011;73698;51.138;6.950;2024-03-22T08:17:46;24.67;;;12.18;;
83715;SDS011;73698;51.138;6.950;2024-03-22T08:20:11;21.60;;;12.55;;
83715;SDS011;73698;51.138;6.950;2024-03-22T08:22:37;24.25;;;11.93;;
83715;SDS011;73698;51.138;6.950;2024-03-22T08:25:02;20.02;;;10.73;;
83715;SDS011;73698;51.138;6.950;2024-03-22T08:27:29;23.08;;;12.07;;
83715;SDS011;73698;51.138;6.950;2024-03-22T08:29:54;18.77;;;10.35;;
83715;SDS011;73698;51.138;6.950;2024-03-22T08:32:20;21.48;;;10.60;;
83715;SDS011;73698;51.138;6.950;2024-03-22T08:34:45;23.48;;;9.45;;
83715;SDS011;73698;51.138;6.950;2024-03-22T08:37:11;19.08;;;10.23;;
83715;SDS011;73698;51.138;6.950;2024-03-22T08:39:36;19.35;;;9.85;;
83715;SDS011;73698;51.138;6.950;2024-03-22T08:42:02;22.30;;;10.77;;
83715;SDS011;73698;51.138;6.950;2024-03-22T08:44:30;22.52;;;10.60;;
83715;SDS011;73698;51.138;6.950;2024-03-22T08:46:55;20.80;;;10.50;;
83715;SDS011;73698;51.138;6.950;2024-03-22T08:49:22;19.38;;;9.15;;
83715;SDS011;73698;51.138;6.950;2024-03-22T08:51:48;17.55;;;8.95;;
83715;SDS011;73698;51.138;6.950;2024-03-22T08:54:14;20.88;;;10.52;;
83715;SDS011;73698;51.138;6.950;2024-03-22T08:56:39;17.55;;;9.25;;
83715;SDS011;73698;51.138;6.950;2024-03-22T08:59:05;18.65;;;10.40;;
83715;SDS011;73698;51.138;6.950;2024-03-22T09:01:30;22.10;;;9.98;;
83715;SDS011;73698;51.138;6.950;2024-03-22T09:03:56;19.92;;;9.85;;
83715;SDS011;73698;51.138;6.950;2024-03-22T09:06:21;22.05;;;10.40;;
83715;SDS011;73698;51.138;6.950;2024-03-22T09:08:47;21.27;;;10.15;;
83715;SDS011;73698;51.138;6.950;2024-03-22T09:11:12;20.08;;;9.73;;
83715;SDS011;73698;51.138;6.950;2024-03-22T09:13:37;19.02;;;8.98;;
83715;SDS011;73698;51.138;6.950;2024-03-22T09:16:03;18.90;;;9.60;;
83715;SDS011;73698;51.138;6.950;2024-03-22T09:18:28;20.20;;;9.90;;
83715;SDS011;73698;51.138;6.950;2024-03-22T09:20:54;20.60;;;10.15;;
83715;SDS011;73698;51.138;6.950;2024-03-22T09:23:20;19.67;;;10.45;;
83715;SDS011;73698;51.138;6.950;2024-03-22T09:25:46;15.55;;;10.07;;
83715;SDS011;73698;51.138;6.950;2024-03-22T09:28:12;23.08;;;10.85;;
83715;SDS011;73698;51.138;6.950;2024-03-22T09:30:38;19.23;;;10.35;;
83715;SDS011;73698;51.138;6.950;2024-03-22T09:33:08;20.55;;;9.65;;
83715;SDS011;73698;51.138;6.950;2024-03-22T09:35:34;19.40;;;8.75;;
83715;SDS011;73698;51.138;6.950;2024-03-22T09:37:59;17.95;;;9.93;;
83715;SDS011;73698;51.138;6.950;2024-03-22T09:40:25;18.80;;;10.00;;
83715;SDS011;73698;51.138;6.950;2024-03-22T09:42:50;15.55;;;8.85;;
83715;SDS011;73698;51.138;6.950;2024-03-22T09:45:18;18.25;;;10.02;;
83715;SDS011;73698;51.138;6.950;2024-03-22T09:47:45;15.70;;;8.73;;
83715;SDS011;73698;51.138;6.950;2024-03-22T09:50:13;17.20;;;8.73;;
83715;SDS011;73698;51.138;6.950;2024-03-22T09:52:39;16.48;;;9.15;;
83715;SDS011;73698;51.138;6.950;2024-03-22T09:55:07;19.33;;;8.30;;
83715;SDS011;73698;51.138;6.950;2024-03-22T09:57:37;17.35;;;8.30;;
83715;SDS011;73698;51.138;6.950;2024-03-22T10:00:06;15.13;;;8.05;;
83715;SDS011;73698;51.138;6.950;2024-03-22T10:02:33;12.77;;;8.20;;
83715;SDS011;73698;51.138;6.950;2024-03-22T10:04:59;17.17;;;8.82;;
83715;SDS011;73698;51.138;6.950;2024-03-22T10:07:25;16.75;;;8.85;;
83715;SDS011;73698;51.138;6.950;2024-03-22T10:09:53;18.75;;;8.55;;
83715;SDS011;73698;51.138;6.950;2024-03-22T10:12:23;20.95;;;8.70;;
83715;SDS011;73698;51.138;6.950;2024-03-22T10:14:50;17.42;;;8.65;;
83715;SDS011;73698;51.138;6.950;2024-03-22T10:17:17;15.88;;;8.20;;
83715;SDS011;73698;51.138;6.950;2024-03-22T10:19:43;16.20;;;8.45;;
83715;SDS011;73698;51.138;6.950;2024-03-22T10:22:08;17.77;;;9.38;;
83715;SDS011;73698;51.138;6.950;2024-03-22T10:24:34;16.08;;;8.32;;
83715;SDS011;73698;51.138;6.950;2024-03-22T10:26:59;18.80;;;9.95;;
83715;SDS011;73698;51.138;6.950;2024-03-22T10:29:25;16.55;;;8.90;;
83715;SDS011;73698;51.138;6.950;2024-03-22T10:31:54;17.95;;;8.60;;
83715;SDS011;73698;51.138;6.950;2024-03-22T10:34:21;16.88;;;8.93;;
83715;SDS011;73698;51.138;6.950;2024-03-22T10:36:47;17.25;;;9.40;;
83715;SDS011;73698;51.138;6.950;2024-03-22T10:39:15;19.05;;;8.77;;
83715;SDS011;73698;51.138;6.950;2024-03-22T10:41:43;17.60;;;8.88;;
83715;SDS011;73698;51.138;6.950;2024-03-22T10:44:10;19.90;;;9.48;;
83715;SDS011;73698;51.138;6.950;2024-03-22T10:46:35;20.33;;;9.57;;
83715;SDS011;73698;51.138;6.950;2024-03-22T10:49:02;16.40;;;8.98;;
83715;SDS011;73698;51.138;6.950;2024-03-22T10:51:31;15.30;;;8.60;;
83715;SDS011;73698;51.138;6.950;2024-03-22T10:54:00;14.82;;;8.63;;
83715;SDS011;73698;51.138;6.950;2024-03-22T10:56:29;17.00;;;9.35;;
83715;SDS011;73698;51.138;6.950;2024-03-22T10:58:55;16.80;;;8.93;;
83715;SDS011;73698;51.138;6.950;2024-03-22T11:01:27;20.60;;;9.38;;
83715;SDS011;73698;51.138;6.950;2024-03-22T11:04:08;17.65;;;9.32;;
83715;SDS011;73698;51.138;6.950;2024-03-22T11:06:36;17.67;;;8.80;;
83715;SDS011;73698;51.138;6.950;2024-03-22T11:09:02;18.10;;;9.55;;
83715;SDS011;73698;51.138;6.950;2024-03-22T11:11:29;15.48;;;8.70;;
83715;SDS011;73698;51.138;6.950;2024-03-22T11:13:56;17.20;;;9.38;;
83715;SDS011;73698;51.138;6.950;2024-03-22T11:16:22;21.00;;;10.55;;
83715;SDS011;73698;51.138;6.950;2024-03-22T11:18:47;16.67;;;10.10;;
83715;SDS011;73698;51.138;6.950;2024-03-22T11:21:14;23.17;;;10.13;;
83715;SDS011;73698;51.138;6.950;2024-03-22T11:23:40;17.40;;;10.07;;
83715;SDS011;73698;51.138;6.950;2024-03-22T11:26:05;21.67;;;11.18;;
83715;SDS011;73698;51.138;6.950;2024-03-22T11:28:32;20.27;;;12.50;;
83715;SDS011;73698;51.138;6.950;2024-03-22T11:30:58;23.45;;;12.55;;
83715;SDS011;73698;51.138;6.950;2024-03-22T11:33:24;26.50;;;12.65;;
83715;SDS011;73698;51.138;6.950;2024-03-22T11:35:52;23.95;;;12.18;;
83715;SDS011;73698;51.138;6.950;2024-03-22T11:38:17;20.52;;;11.45;;
83715;SDS011;73698;51.138;6.950;2024-03-22T11:40:43;21.35;;;12.10;;
83715;SDS011;73698;51.138;6.950;2024-03-22T11:43:10;27.55;;;13.52;;
83715;SDS011;73698;51.138;6.950;2024-03-22T11:45:38;24.50;;;13.63;;
83715;SDS011;73698;51.138;6.950;2024-03-22T11:48:05;19.92;;;11.52;;
83715;SDS011;73698;51.138;6.950;2024-03-22T11:50:31;26.05;;;12.10;;
83715;SDS011;73698;51.138;6.950;2024-03-22T11:52:56;19.02;;;11.55;;
83715;SDS011;73698;51.138;6.950;2024-03-22T11:55:22;22.42;;;12.77;;
83715;SDS011;73698;51.138;6.950;2024-03-22T11:57:48;22.42;;;11.55;;
83715;SDS011;73698;51.138;6.950;2024-03-22T12:00:14;19.15;;;11.52;;
83715;SDS011;73698;51.138;6.950;2024-03-22T12:02:40;22.42;;;12.68;;
83715;SDS011;73698;51.138;6.950;2024-03-22T12:05:06;26.38;;;11.98;;
83715;SDS011;73698;51.138;6.950;2024-03-22T12:07:32;21.30;;;12.10;;
83715;SDS011;73698;51.138;6.950;2024-03-22T12:09:59;18.45;;;11.55;;
83715;SDS011;73698;51.138;6.950;2024-03-22T12:12:24;22.90;;;12.48;;
83715;SDS011;73698;51.138;6.950;2024-03-22T12:14:49;19.48;;;12.63;;
83715;SDS011;73698;51.138;6.950;2024-03-22T12:17:16;20.52;;;11.23;;
83715;SDS011;73698;51.138;6.950;2024-03-22T12:19:42;20.70;;;11.85;;
83715;SDS011;73698;51.138;6.950;2024-03-22T12:22:07;22.67;;;12.02;;
83715;SDS011;73698;51.138;6.950;2024-03-22T12:24:32;21.10;;;11.35;;
83715;SDS011;73698;51.138;6.950;2024-03-22T12:26:58;18.50;;;11.73;;
83715;SDS011;73698;51.138;6.950;2024-03-22T12:29:24;19.10;;;11.57;;
83715;SDS011;73698;51.138;6.950;2024-03-22T12:31:49;24.42;;;13.00;;
83715;SDS011;73698;51.138;6.950;2024-03-22T12:34:16;21.52;;;12.32;;
83715;SDS011;73698;51.138;6.950;2024-03-22T12:36:41;22.95;;;12.88;;
83715;SDS011;73698;51.138;6.950;2024-03-22T12:39:07;19.17;;;11.48;;
83715;SDS011;73698;51.138;6.950;2024-03-22T12:41:33;19.42;;;10.52;;
83715;SDS011;73698;51.138;6.950;2024-03-22T12:43:59;21.15;;;11.45;;
83715;SDS011;73698;51.138;6.950;2024-03-22T12:46:25;23.70;;;12.23;;
83715;SDS011;73698;51.138;6.950;2024-03-22T12:48:52;23.52;;;12.15;;
83715;SDS011;73698;51.138;6.950;2024-03-22T12:51:18;21.98;;;11.38;;
83715;SDS011;73698;51.138;6.950;2024-03-22T12:53:44;20.35;;;11.43;;
83715;SDS011;73698;51.138;6.950;2024-03-22T12:56:10;20.20;;;11.73;;
83715;SDS011;73698;51.138;6.950;2024-03-22T12:58:36;23.98;;;11.80;;
83715;SDS011;73698;51.138;6.950;2024-03-22T13:01:02;19.98;;;11.90;;
83715;SDS011;73698;51.138;6.950;2024-03-22T13:03:28;20.15;;;11.52;;
83715;SDS011;73698;51.138;6.950;2024-03-22T13:05:54;22.00;;;12.48;;
83715;SDS011;73698;51.138;6.950;2024-03-22T13:08:19;19.60;;;12.38;;
83715;SDS011;73698;51.138;6.950;2024-03-22T13:10:45;23.60;;;11.73;;
83715;SDS011;73698;51.138;6.950;2024-03-22T13:13:12;20.98;;;12.27;;
83715;SDS011;73698;51.138;6.950;2024-03-22T13:15:40;22.38;;;10.93;;
83715;SDS011;73698;51.138;6.950;2024-03-22T13:18:05;19.75;;;10.57;;
83715;SDS011;73698;51.138;6.950;2024-03-22T13:20:32;22.10;;;11.68;;
83715;SDS011;73698;51.138;6.950;2024-03-22T13:23:00;21.00;;;11.15;;
83715;SDS011;73698;51.138;6.950;2024-03-22T13:25:26;19.40;;;11.48;;
83715;SDS011;73698;51.138;6.950;2024-03-22T13:27:51;20.88;;;11.73;;
83715;SDS011;73698;51.138;6.950;2024-03-22T13:30:17;22.42;;;10.68;;
83715;SDS011;73698;51.138;6.950;2024-03-22T13:32:42;21.60;;;12.70;;
83715;SDS011;73698;51.138;6.950;2024-03-22T13:35:07;20.90;;;11.80;;
83715;SDS011;73698;51.138;6.950;2024-03-22T13:37:33;19.52;;;11.73;;
83715;SDS011;73698;51.138;6.950;2024-03-22T13:39:59;16.77;;;9.88;;
83715;SDS011;73698;51.138;6.950;2024-03-22T13:42:25;19.60;;;11.18;;
83715;SDS011;73698;51.138;6.950;2024-03-22T13:44:51;16.98;;;9.85;;
83715;SDS011;73698;51.138;6.950;2024-03-22T13:47:16;21.65;;;11.10;;
83715;SDS011;73698;51.138;6.950;2024-03-22T13:49:43;21.42;;;10.73;;
83715;SDS011;73698;51.138;6.950;2024-03-22T13:52:09;21.98;;;10.85;;
83715;SDS011;73698;51.138;6.950;2024-03-22T13:54:35;21.23;;;9.23;;
83715;SDS011;73698;51.138;6.950;2024-03-22T13:57:00;18.23;;;9.95;;
83715;SDS011;73698;51.138;6.950;2024-03-22T13:59:26;19.65;;;9.80;;
83715;SDS011;73698;51.138;6.950;2024-03-22T14:01:52;23.30;;;10.00;;
83715;SDS011;73698;51.138;6.950;2024-03-22T14:04:18;17.50;;;9.40;;
83715;SDS011;73698;51.138;6.950;2024-03-22T14:06:46;17.33;;;9.00;;
83715;SDS011;73698;51.138;6.950;2024-03-22T14:09:12;16.98;;;9.23;;
83715;SDS011;73698;51.138;6.950;2024-03-22T14:11:40;18.30;;;9.23;;
83715;SDS011;73698;51.138;6.950;2024-03-22T14:14:07;17.88;;;9.75;;
83715;SDS011;73698;51.138;6.950;2024-03-22T14:16:33;17.98;;;9.85;;
83715;SDS011;73698;51.138;6.950;2024-03-22T14:18:59;23.92;;;9.18;;
83715;SDS011;73698;51.138;6.950;2024-03-22T14:21:24;14.32;;;8.43;;